createdAt,value
2018-12-15T00:00:16.200Z,0.40
2018-12-15T00:02:44.537Z,0.30
2018-12-15T00:05:12.847Z,0.40
2018-12-15T00:07:41.542Z,0.30
2018-12-15T00:10:09.858Z,0.30
2018-12-15T00:12:38.248Z,0.30
2018-12-15T00:15:08.238Z,0.30
2018-12-15T00:17:36.701Z,0.30
2018-12-15T00:20:05.952Z,0.30
2018-12-15T00:22:34.221Z,0.40
2018-12-15T00:25:02.588Z,0.30
2018-12-15T00:27:31.220Z,0.20
2018-12-15T00:29:59.568Z,0.20
2018-12-15T00:32:28.033Z,0.20
2018-12-15T00:34:56.311Z,0.20
2018-12-15T00:37:24.892Z,0.20
2018-12-15T00:39:54.175Z,0.20
2018-12-15T00:42:32.019Z,0.10
2018-12-15T00:45:00.505Z,0.20
2018-12-15T00:47:28.864Z,0.10
2018-12-15T00:49:57.217Z,0.20
2018-12-15T00:52:25.803Z,0.10
2018-12-15T00:54:54.265Z,0.10
2018-12-15T00:57:22.642Z,0.10
2018-12-15T00:59:50.857Z,0.10
2018-12-15T01:02:19.344Z,0.10
2018-12-15T01:04:48.003Z,0.10
2018-12-15T01:07:16.550Z,0.00
2018-12-15T01:09:45.020Z,0.10
2018-12-15T01:12:13.296Z,0.20
2018-12-15T01:14:41.808Z,0.10
2018-12-15T01:17:10.008Z,0.10
2018-12-15T01:19:38.461Z,0.00
2018-12-15T01:22:06.621Z,0.10
2018-12-15T01:24:34.969Z,0.10
2018-12-15T01:27:03.192Z,0.00
2018-12-15T01:29:31.446Z,0.10
2018-12-15T01:31:59.737Z,0.00
2018-12-15T01:34:28.166Z,0.00
2018-12-15T01:36:56.941Z,0.00
2018-12-15T01:39:25.487Z,-0.10
2018-12-15T01:41:54.673Z,-0.10
2018-12-15T01:44:22.966Z,0.00
2018-12-15T01:46:51.879Z,0.00
2018-12-15T01:49:20.341Z,0.00
2018-12-15T01:51:48.572Z,-0.10
2018-12-15T01:54:16.982Z,-0.10
2018-12-15T01:56:45.372Z,-0.10
2018-12-15T01:59:13.685Z,-0.10
2018-12-15T02:01:42.243Z,0.00
2018-12-15T02:04:10.447Z,-0.10
2018-12-15T02:06:39.270Z,-0.10
2018-12-15T02:09:07.784Z,-0.10
2018-12-15T02:11:36.196Z,-0.10
2018-12-15T02:14:04.803Z,-0.10
2018-12-15T02:16:33.690Z,-0.20
2018-12-15T02:19:01.946Z,-0.20
2018-12-15T02:21:30.762Z,-0.20
2018-12-15T02:24:00.050Z,-0.10
2018-12-15T02:26:28.506Z,-0.20
2018-12-15T02:28:56.872Z,-0.10
2018-12-15T02:31:25.919Z,-0.10
2018-12-15T02:33:54.725Z,-0.10
2018-12-15T02:36:23.435Z,-0.10
2018-12-15T02:38:51.836Z,-0.10
2018-12-15T02:41:20.645Z,-0.20
2018-12-15T02:43:48.923Z,-0.10
2018-12-15T02:46:17.488Z,-0.20
2018-12-15T02:48:45.828Z,-0.20
2018-12-15T02:51:14.206Z,-0.20
2018-12-15T02:53:42.524Z,-0.10
2018-12-15T02:56:11.131Z,-0.10
2018-12-15T02:58:39.457Z,-0.20
2018-12-15T03:01:07.728Z,-0.10
2018-12-15T03:03:36.027Z,-0.10
2018-12-15T03:06:04.419Z,-0.10
2018-12-15T03:08:32.800Z,-0.20
2018-12-15T03:11:01.165Z,-0.20
2018-12-15T03:13:29.460Z,-0.20
2018-12-15T03:15:57.909Z,-0.20
2018-12-15T03:18:26.944Z,-0.20
2018-12-15T03:21:03.059Z,-0.30
2018-12-15T03:23:31.699Z,-0.30
2018-12-15T03:26:00.121Z,-0.30
2018-12-15T03:28:28.387Z,-0.30
2018-12-15T03:30:57.300Z,-0.20
2018-12-15T03:33:26.697Z,-0.20
2018-12-15T03:35:55.034Z,-0.20
2018-12-15T03:38:23.302Z,-0.20
2018-12-15T03:40:51.648Z,-0.30
2018-12-15T03:43:19.873Z,-0.30
2018-12-15T03:45:48.170Z,-0.20
2018-12-15T03:48:16.553Z,-0.20
2018-12-15T03:50:44.892Z,-0.20
2018-12-15T03:53:13.263Z,-0.20
2018-12-15T03:55:41.703Z,-0.20
2018-12-15T03:58:10.069Z,-0.20
2018-12-15T04:00:38.759Z,-0.20
2018-12-15T04:03:07.324Z,-0.20
2018-12-15T04:05:35.693Z,-0.10
2018-12-15T04:08:05.063Z,-0.10
2018-12-15T04:10:33.305Z,-0.10
2018-12-15T04:13:01.679Z,-0.20
2018-12-15T04:15:29.967Z,-0.20
2018-12-15T04:18:03.730Z,-0.10
2018-12-15T04:20:28.526Z,-0.20
2018-12-15T04:22:56.785Z,-0.20
2018-12-15T04:25:25.058Z,-0.20
2018-12-15T04:27:53.383Z,-0.10
2018-12-15T04:30:21.625Z,-0.10
2018-12-15T04:32:49.939Z,-0.20
2018-12-15T04:35:19.165Z,-0.20
2018-12-15T04:37:47.401Z,-0.20
2018-12-15T04:40:15.887Z,-0.20
2018-12-15T04:42:44.736Z,-0.30
2018-12-15T04:45:14.000Z,-0.30
2018-12-15T04:47:42.584Z,-0.30
2018-12-15T04:50:10.886Z,-0.30
2018-12-15T04:52:39.311Z,-0.30
2018-12-15T04:55:07.681Z,-0.20
2018-12-15T04:57:36.076Z,-0.20
2018-12-15T05:00:05.022Z,-0.20
2018-12-15T05:02:33.310Z,-0.30
2018-12-15T05:05:01.662Z,-0.30
2018-12-15T05:07:29.847Z,-0.30
2018-12-15T05:09:58.136Z,-0.30
2018-12-15T05:12:26.652Z,-0.20
2018-12-15T05:14:54.916Z,-0.20
2018-12-15T05:17:23.365Z,-0.20
2018-12-15T05:19:51.729Z,-0.20
2018-12-15T05:22:20.325Z,-0.20
2018-12-15T05:24:48.931Z,-0.20
2018-12-15T05:27:17.628Z,-0.20
2018-12-15T05:29:46.013Z,-0.20
2018-12-15T05:32:14.297Z,-0.10
2018-12-15T05:34:43.348Z,-0.20
2018-12-15T05:37:11.784Z,-0.10
2018-12-15T05:39:40.834Z,-0.10
2018-12-15T05:42:09.213Z,0.00
2018-12-15T05:44:37.451Z,0.00
2018-12-15T05:47:05.752Z,-0.10
2018-12-15T05:49:34.169Z,-0.10
2018-12-15T05:52:02.784Z,-0.10
2018-12-15T05:54:31.090Z,-0.20
2018-12-15T05:56:59.409Z,-0.20
2018-12-15T05:59:27.826Z,-0.20
2018-12-15T06:01:56.408Z,-0.20
2018-12-15T06:04:24.731Z,-0.20
2018-12-15T06:06:53.137Z,-0.20
2018-12-15T06:09:22.090Z,-0.20
2018-12-15T06:11:50.701Z,-0.30
2018-12-15T06:14:18.975Z,-0.20
2018-12-15T06:16:47.219Z,-0.20
2018-12-15T06:19:15.559Z,-0.20
2018-12-15T06:21:43.833Z,-0.20
2018-12-15T06:24:12.235Z,-0.20
2018-12-15T06:26:40.465Z,-0.10
2018-12-15T06:29:08.814Z,-0.10
2018-12-15T06:31:37.339Z,-0.10
2018-12-15T06:34:05.766Z,-0.10
2018-12-15T06:36:33.969Z,-0.10
2018-12-15T06:39:02.318Z,-0.10
2018-12-15T06:41:30.573Z,-0.20
2018-12-15T06:43:58.995Z,-0.20
2018-12-15T06:46:27.510Z,-0.20
2018-12-15T06:48:56.096Z,-0.20
2018-12-15T06:51:24.310Z,-0.10
2018-12-15T06:53:52.534Z,0.00
2018-12-15T06:56:25.089Z,-0.10
2018-12-15T06:58:54.148Z,-0.10
2018-12-15T07:01:22.916Z,-0.10
2018-12-15T07:03:51.272Z,-0.20
2018-12-15T07:06:19.578Z,-0.20
2018-12-15T07:08:47.798Z,0.00
2018-12-15T07:11:16.151Z,-0.10
2018-12-15T07:13:44.506Z,-0.10
2018-12-15T07:16:12.809Z,0.00
2018-12-15T07:18:44.820Z,0.00
2018-12-15T07:21:11.383Z,0.00
2018-12-15T07:23:39.850Z,-0.20
2018-12-15T07:26:08.175Z,-0.30
2018-12-15T07:28:36.530Z,-0.20
2018-12-15T07:31:05.050Z,-0.10
2018-12-15T07:33:33.408Z,-0.10
2018-12-15T07:36:01.871Z,-0.10
2018-12-15T07:38:30.169Z,-0.10
2018-12-15T07:40:58.935Z,-0.10
2018-12-15T07:43:28.334Z,0.00
2018-12-15T07:45:56.707Z,-0.10
2018-12-15T07:48:25.005Z,-0.10
2018-12-15T07:50:53.356Z,-0.10
2018-12-15T07:53:21.854Z,0.00
2018-12-15T07:55:50.230Z,-0.10
2018-12-15T07:58:18.615Z,0.10
2018-12-15T08:00:46.950Z,0.00
2018-12-15T08:03:15.366Z,0.00
2018-12-15T08:05:43.582Z,-0.10
2018-12-15T08:08:12.048Z,-0.10
2018-12-15T08:10:45.660Z,0.00
2018-12-15T08:13:33.652Z,-0.10
2018-12-15T08:16:02.090Z,-0.10
2018-12-15T08:18:30.547Z,-0.10
2018-12-15T08:20:58.960Z,0.00
2018-12-15T08:23:27.491Z,0.00
2018-12-15T08:25:55.731Z,-0.10
2018-12-15T08:28:24.229Z,-0.10
2018-12-15T08:30:52.524Z,-0.10
2018-12-15T08:33:21.039Z,0.00
2018-12-15T08:35:49.404Z,0.10
2018-12-15T08:38:17.766Z,0.00
2018-12-15T08:40:46.228Z,0.10
2018-12-15T08:43:14.672Z,0.10
2018-12-15T08:45:42.939Z,0.10
2018-12-15T08:48:11.573Z,0.20
2018-12-15T08:50:40.155Z,0.30
2018-12-15T08:53:08.593Z,0.30
2018-12-15T08:55:36.952Z,0.20
2018-12-15T08:58:05.304Z,0.10
2018-12-15T09:00:33.614Z,0.10
2018-12-15T09:03:02.227Z,0.10
2018-12-15T09:05:30.729Z,0.00
2018-12-15T09:07:59.055Z,0.00
2018-12-15T09:10:27.601Z,0.00
2018-12-15T09:12:56.008Z,0.10
2018-12-15T09:15:25.613Z,0.00
2018-12-15T09:17:53.943Z,0.00
2018-12-15T09:20:22.371Z,0.00
2018-12-15T09:22:50.599Z,0.10
2018-12-15T09:25:19.021Z,0.30
2018-12-15T09:27:47.321Z,0.40
2018-12-15T09:30:15.860Z,0.40
2018-12-15T09:32:44.065Z,0.30
2018-12-15T09:35:12.399Z,0.20
2018-12-15T09:37:40.788Z,0.30
2018-12-15T09:40:09.180Z,0.30
2018-12-15T09:42:37.650Z,0.60
2018-12-15T09:45:06.145Z,0.60
2018-12-15T09:47:34.516Z,0.50
2018-12-15T09:50:02.985Z,0.60
2018-12-15T09:52:31.375Z,0.40
2018-12-15T09:55:00.115Z,0.40
2018-12-15T09:57:28.331Z,0.50
2018-12-15T09:59:56.732Z,0.70
2018-12-15T10:02:25.237Z,0.50
2018-12-15T10:04:53.660Z,0.40
2018-12-15T10:07:22.026Z,0.40
2018-12-15T10:09:50.359Z,0.40
2018-12-15T10:12:18.968Z,0.30
2018-12-15T10:14:47.203Z,0.20
2018-12-15T10:17:15.504Z,0.20
2018-12-15T10:19:43.872Z,0.20
2018-12-15T10:22:12.174Z,0.70
2018-12-15T10:24:40.669Z,0.50
2018-12-15T10:27:08.959Z,0.60
2018-12-15T10:29:42.807Z,0.50
2018-12-15T10:32:16.682Z,0.40
2018-12-15T10:34:51.568Z,0.50
2018-12-15T10:37:19.949Z,0.30
2018-12-15T10:39:48.325Z,0.30
2018-12-15T10:42:16.595Z,0.30
2018-12-15T10:44:44.939Z,0.20
2018-12-15T10:47:13.695Z,0.30
2018-12-15T10:49:42.087Z,0.30
2018-12-15T10:52:10.352Z,0.20
2018-12-15T10:54:40.619Z,0.20
2018-12-15T10:57:09.546Z,0.30
2018-12-15T10:59:37.940Z,0.20
2018-12-15T11:02:06.524Z,0.10
2018-12-15T11:04:34.763Z,0.20
2018-12-15T11:07:04.796Z,0.10
2018-12-15T11:09:33.953Z,0.10
2018-12-15T11:12:02.451Z,0.20
2018-12-15T11:14:31.350Z,0.20
2018-12-15T11:16:59.828Z,0.20
2018-12-15T11:19:28.445Z,0.20
2018-12-15T11:21:56.740Z,0.20
2018-12-15T11:24:25.079Z,0.30
2018-12-15T11:26:53.521Z,0.40
2018-12-15T11:29:21.899Z,0.50
2018-12-15T11:31:50.270Z,0.50
2018-12-15T11:34:18.656Z,0.60
2018-12-15T11:36:47.067Z,0.60
2018-12-15T11:39:15.430Z,0.50
2018-12-15T11:41:43.853Z,0.60
2018-12-15T11:44:12.111Z,0.60
2018-12-15T11:46:40.379Z,0.60
2018-12-15T11:49:08.722Z,0.60
2018-12-15T11:51:37.332Z,0.60
2018-12-15T11:54:05.817Z,0.60
2018-12-15T11:56:34.462Z,0.70
2018-12-15T11:59:02.878Z,0.70
2018-12-15T12:01:31.207Z,0.70
2018-12-15T12:03:59.691Z,0.70
2018-12-15T12:06:28.070Z,0.90
2018-12-15T12:08:56.385Z,0.70
2018-12-15T12:11:24.715Z,0.60
2018-12-15T12:13:52.947Z,0.60
2018-12-15T12:16:21.452Z,0.70
2018-12-15T12:18:49.743Z,0.70
2018-12-15T12:21:18.118Z,0.70
2018-12-15T12:23:46.368Z,0.60
2018-12-15T12:26:14.823Z,0.80
2018-12-15T12:28:43.216Z,0.90
2018-12-15T12:31:11.591Z,1.00
2018-12-15T12:33:40.298Z,0.90
2018-12-15T12:36:08.623Z,0.80
2018-12-15T12:38:37.255Z,0.60
2018-12-15T12:41:05.562Z,0.40
2018-12-15T12:43:33.847Z,0.50
2018-12-15T12:46:02.189Z,0.50
2018-12-15T12:48:30.508Z,0.60
2018-12-15T12:50:58.901Z,0.40
2018-12-15T12:53:27.632Z,0.40
2018-12-15T12:55:56.112Z,0.50
2018-12-15T12:58:24.499Z,0.60
2018-12-15T13:00:52.832Z,0.60
2018-12-15T13:03:21.054Z,0.60
2018-12-15T13:05:49.617Z,0.60
2018-12-15T13:08:17.960Z,0.70
2018-12-15T13:10:46.320Z,0.60
2018-12-15T13:13:14.986Z,0.60
2018-12-15T13:15:43.383Z,0.60
2018-12-15T13:18:11.708Z,0.40
2018-12-15T13:20:40.120Z,0.40
2018-12-15T13:23:08.596Z,0.40
2018-12-15T13:25:37.019Z,0.40
2018-12-15T13:28:05.521Z,0.50
2018-12-15T13:30:34.824Z,0.60
2018-12-15T13:33:09.835Z,0.60
2018-12-15T13:35:39.003Z,0.70
2018-12-15T13:38:07.553Z,0.80
2018-12-15T13:40:36.125Z,0.80
2018-12-15T13:43:04.415Z,1.00
2018-12-15T13:45:32.826Z,0.90
2018-12-15T13:48:01.291Z,1.00
2018-12-15T13:50:29.736Z,0.80
2018-12-15T13:52:58.149Z,0.60
2018-12-15T13:55:26.826Z,0.70
2018-12-15T13:57:55.147Z,0.70
2018-12-15T14:00:23.502Z,0.70
2018-12-15T14:02:51.833Z,0.70
2018-12-15T14:05:20.064Z,0.70
2018-12-15T14:07:48.371Z,0.60
2018-12-15T14:10:16.664Z,0.70
2018-12-15T14:12:45.179Z,0.70
2018-12-15T14:15:13.596Z,0.70
2018-12-15T14:17:41.992Z,0.60
2018-12-15T14:20:16.537Z,0.50
2018-12-15T14:22:40.588Z,0.60
2018-12-15T14:25:09.172Z,0.60
2018-12-15T14:27:37.430Z,0.60
2018-12-15T14:30:06.835Z,0.60
2018-12-15T14:32:35.071Z,0.60
2018-12-15T14:35:03.650Z,0.60
2018-12-15T14:37:31.951Z,0.60
2018-12-15T14:40:00.338Z,0.60
2018-12-15T14:42:28.685Z,0.60
2018-12-15T14:44:57.072Z,0.60
2018-12-15T14:47:25.301Z,0.60
2018-12-15T14:49:53.611Z,0.70
2018-12-15T14:52:21.880Z,0.70
2018-12-15T14:54:50.775Z,0.60
2018-12-15T14:57:23.327Z,0.50
2018-12-15T14:59:51.661Z,0.50
2018-12-15T15:02:20.748Z,0.70
2018-12-15T15:04:49.131Z,0.70
2018-12-15T15:07:17.984Z,0.70
2018-12-15T15:09:46.189Z,0.70
2018-12-15T15:12:14.630Z,0.60
2018-12-15T15:14:43.496Z,0.50
2018-12-15T15:17:11.888Z,0.40
2018-12-15T15:19:40.240Z,0.50
2018-12-15T15:22:09.024Z,0.40
2018-12-15T15:24:37.449Z,0.30
2018-12-15T15:27:05.784Z,0.40
2018-12-15T15:29:34.077Z,0.40
2018-12-15T15:32:02.532Z,0.40
2018-12-15T15:34:30.873Z,0.40
2018-12-15T15:36:59.244Z,0.40
2018-12-15T15:39:27.780Z,0.30
2018-12-15T15:41:56.198Z,0.30
2018-12-15T15:44:24.476Z,0.30
2018-12-15T15:46:52.706Z,0.30
2018-12-15T15:49:21.102Z,0.30
2018-12-15T15:51:49.533Z,0.40
2018-12-15T15:54:18.185Z,0.40
2018-12-15T15:56:46.501Z,0.30
2018-12-15T15:59:14.849Z,0.30
2018-12-15T16:01:43.147Z,0.30
2018-12-15T16:04:11.400Z,0.30
2018-12-15T16:06:39.811Z,0.30
2018-12-15T16:09:09.573Z,0.30
2018-12-15T16:11:38.196Z,0.20
2018-12-15T16:14:06.622Z,0.20
2018-12-15T16:16:35.494Z,0.20
2018-12-15T16:19:04.069Z,0.30
2018-12-15T16:21:32.446Z,0.30
2018-12-15T16:24:00.786Z,0.30
2018-12-15T16:26:29.297Z,0.40
2018-12-15T16:28:57.704Z,0.40
2018-12-15T16:31:26.151Z,0.50
2018-12-15T16:33:54.471Z,0.40
2018-12-15T16:36:22.979Z,0.40
2018-12-15T16:38:51.267Z,0.40
2018-12-15T16:41:19.671Z,0.40
2018-12-15T16:43:48.114Z,0.40
2018-12-15T16:46:16.451Z,0.40
2018-12-15T16:48:44.745Z,0.30
2018-12-15T16:51:13.147Z,0.30
2018-12-15T16:53:41.431Z,0.50
2018-12-15T16:56:10.114Z,0.50
2018-12-15T16:58:38.290Z,0.50
2018-12-15T17:01:06.592Z,0.40
2018-12-15T17:03:35.030Z,0.40
2018-12-15T17:06:03.455Z,0.50
2018-12-15T17:08:31.795Z,0.50
2018-12-15T17:11:00.753Z,0.30
2018-12-15T17:13:29.375Z,0.30
2018-12-15T17:15:57.843Z,0.30
2018-12-15T17:18:26.420Z,0.30
2018-12-15T17:20:56.755Z,0.40
2018-12-15T17:23:25.204Z,0.30
2018-12-15T17:25:54.205Z,0.30
2018-12-15T17:28:22.432Z,0.30
2018-12-15T17:30:50.997Z,0.20
2018-12-15T17:33:19.287Z,0.20
2018-12-15T17:35:47.591Z,0.30
2018-12-15T17:38:15.969Z,0.30
2018-12-15T17:40:44.240Z,0.20
2018-12-15T17:43:13.363Z,0.20
2018-12-15T17:45:41.621Z,0.20
2018-12-15T17:48:10.171Z,0.40
2018-12-15T17:50:38.487Z,0.40
2018-12-15T17:53:06.909Z,0.40
2018-12-15T17:55:35.276Z,0.40
2018-12-15T17:58:03.596Z,0.30
2018-12-15T18:00:32.486Z,0.30
2018-12-15T18:03:01.569Z,0.30
2018-12-15T18:05:30.007Z,0.20
2018-12-15T18:07:59.154Z,0.30
2018-12-15T18:10:27.678Z,0.40
2018-12-15T18:12:56.198Z,0.30
2018-12-15T18:15:24.482Z,0.40
2018-12-15T18:17:52.863Z,0.30
2018-12-15T18:20:21.280Z,0.20
2018-12-15T18:22:49.928Z,0.20
2018-12-15T18:25:18.454Z,0.20
2018-12-15T18:27:46.676Z,0.30
2018-12-15T18:30:15.267Z,0.30
2018-12-15T18:32:43.845Z,0.30
2018-12-15T18:35:12.938Z,0.20
2018-12-15T18:37:41.483Z,0.30
2018-12-15T18:40:10.250Z,0.30
2018-12-15T18:42:38.562Z,0.30
2018-12-15T18:45:07.521Z,0.30
2018-12-15T18:47:35.763Z,0.30
2018-12-15T18:50:05.296Z,0.30
2018-12-15T18:52:33.792Z,0.30
2018-12-15T18:55:02.126Z,0.30
2018-12-15T18:57:30.632Z,0.30
2018-12-15T18:59:58.899Z,0.40
2018-12-15T19:02:27.707Z,0.30
2018-12-15T19:04:56.381Z,0.40
2018-12-15T19:07:24.868Z,0.30
2018-12-15T19:09:53.147Z,0.30
2018-12-15T19:12:21.459Z,0.30
2018-12-15T19:14:49.750Z,0.30
2018-12-15T19:17:18.039Z,0.20
2018-12-15T19:19:46.270Z,0.20
2018-12-15T19:22:14.825Z,0.10
2018-12-15T19:24:43.528Z,0.20
2018-12-15T19:27:12.066Z,0.10
2018-12-15T19:29:40.557Z,0.20
2018-12-15T19:32:09.435Z,0.20
2018-12-15T19:34:37.673Z,0.20
2018-12-15T19:37:05.970Z,0.20
2018-12-15T19:39:34.378Z,0.20
2018-12-15T19:42:02.916Z,0.10
2018-12-15T19:44:31.165Z,0.20
2018-12-15T19:47:00.477Z,0.20
2018-12-15T19:49:29.019Z,0.10
2018-12-15T19:51:57.358Z,0.20
2018-12-15T19:54:25.746Z,0.20
2018-12-15T19:56:53.964Z,0.20
2018-12-15T19:59:22.328Z,0.20
2018-12-15T20:01:50.664Z,0.20
2018-12-15T20:04:19.065Z,0.20
2018-12-15T20:06:47.444Z,0.10
2018-12-15T20:09:15.749Z,0.20
2018-12-15T20:11:44.134Z,0.10
2018-12-15T20:14:12.500Z,0.10
2018-12-15T20:16:40.947Z,0.10
2018-12-15T20:19:09.286Z,0.00
2018-12-15T20:21:37.912Z,0.10
2018-12-15T20:24:06.421Z,0.10
2018-12-15T20:26:34.735Z,0.10
2018-12-15T20:29:03.145Z,0.10
2018-12-15T20:31:31.524Z,0.10
2018-12-15T20:33:59.837Z,0.10
2018-12-15T20:36:28.248Z,0.10
2018-12-15T20:38:57.220Z,0.10
2018-12-15T20:41:25.695Z,0.20
2018-12-15T20:43:54.140Z,0.20
2018-12-15T20:46:23.435Z,0.10
2018-12-15T20:48:52.490Z,0.10
2018-12-15T20:51:20.851Z,0.10
2018-12-15T20:53:49.317Z,0.00
2018-12-15T20:56:17.749Z,0.00
2018-12-15T20:58:46.076Z,0.10
2018-12-15T21:01:14.806Z,0.00
2018-12-15T21:03:43.186Z,0.10
2018-12-15T21:06:12.458Z,0.10
2018-12-15T21:08:40.707Z,0.10
2018-12-15T21:11:08.948Z,0.10
2018-12-15T21:13:37.351Z,0.10
2018-12-15T21:16:05.615Z,0.00
2018-12-15T21:18:34.047Z,0.10
2018-12-15T21:21:02.354Z,0.10
2018-12-15T21:23:30.712Z,0.20
2018-12-15T21:25:59.002Z,0.10
2018-12-15T21:28:28.671Z,0.20
2018-12-15T21:31:08.164Z,0.20
2018-12-15T21:33:38.107Z,0.10
2018-12-15T21:36:06.690Z,0.10
2018-12-15T21:38:35.155Z,0.10
2018-12-15T21:41:18.056Z,0.10
2018-12-15T21:43:46.583Z,0.10
2018-12-15T21:46:15.644Z,0.20
2018-12-15T21:48:44.086Z,0.20
2018-12-15T21:51:12.647Z,0.10
2018-12-15T21:53:40.940Z,0.10
2018-12-15T21:56:09.240Z,0.10
2018-12-15T21:58:37.743Z,0.20
2018-12-15T22:01:06.084Z,0.10
2018-12-15T22:03:34.350Z,0.10
2018-12-15T22:06:02.587Z,0.10
2018-12-15T22:08:33.605Z,0.20
2018-12-15T22:11:01.885Z,0.10
2018-12-15T22:13:30.137Z,0.10
2018-12-15T22:16:01.818Z,0.10
2018-12-15T22:18:31.211Z,0.10
2018-12-15T22:21:05.509Z,0.20
2018-12-15T22:23:34.077Z,0.30
2018-12-15T22:26:02.498Z,0.20
2018-12-15T22:28:30.961Z,0.20
2018-12-15T22:30:59.226Z,0.20
2018-12-15T22:33:27.627Z,0.10
2018-12-15T22:35:55.995Z,0.10
2018-12-15T22:38:24.279Z,0.10
2018-12-15T22:40:52.631Z,0.10
2018-12-15T22:43:21.057Z,0.10
2018-12-15T22:45:49.259Z,0.10
2018-12-15T22:48:17.744Z,0.10
2018-12-15T22:50:46.176Z,0.10
2018-12-15T22:53:14.786Z,0.10
2018-12-15T22:55:43.071Z,0.10
2018-12-15T22:58:11.392Z,0.10
2018-12-15T23:00:45.699Z,0.10
2018-12-15T23:03:13.935Z,0.10
2018-12-15T23:05:42.236Z,0.10
2018-12-15T23:08:10.484Z,0.10
2018-12-15T23:10:38.936Z,0.00
2018-12-15T23:13:07.374Z,0.00
2018-12-15T23:15:35.768Z,0.10
2018-12-15T23:18:04.674Z,0.20
2018-12-15T23:20:32.894Z,0.10
2018-12-15T23:23:01.191Z,0.10
2018-12-15T23:25:29.556Z,0.20
2018-12-15T23:27:59.177Z,0.20
2018-12-15T23:30:27.554Z,0.10
2018-12-15T23:32:55.878Z,0.20
2018-12-15T23:35:24.183Z,0.10
2018-12-15T23:37:52.503Z,0.00
2018-12-15T23:40:20.843Z,0.10
2018-12-15T23:42:49.230Z,0.10
2018-12-15T23:45:17.601Z,0.10
2018-12-15T23:47:46.014Z,0.10
2018-12-15T23:50:14.296Z,0.20
2018-12-15T23:52:42.676Z,0.10
2018-12-15T23:55:10.943Z,0.30
2018-12-15T23:57:39.319Z,0.20
